Time;durP1;ratioP1;P1;durP2;ratioP2;P2;SDS_P1;SDS_P2;PMS_P1;PMS_P2;Temp;Humidity;BMP_temperature;BMP_pressure;BME280_temperature;BME280_humidity;BME280_pressure;Samples;Min_cycle;Max_cycle;Signal;HPM_P1;HPM_P2
2024/01/16 00:00:28;;;;;;;26.83;23.98;;;;;;;1.79;100.00;95167.00;5092964;28;20682;-68
2024/01/16 00:02:53;;;;;;;31.67;27.55;;;;;;;1.81;100.00;95170.31;5082687;28;20035;-68
2024/01/16 00:05:19;;;;;;;31.67;27.48;;;;;;;1.79;100.00;95160.06;5083850;28;20415;-68
2024/01/16 00:07:44;;;;;;;27.52;23.98;;;;;;;1.79;100.00;95165.25;5094686;28;20508;-68
2024/01/16 00:10:10;;;;;;;29.63;26.45;;;;;;;1.79;100.00;95159.19;5083125;28;20055;-68
2024/01/16 00:12:35;;;;;;;30.92;27.02;;;;;;;1.78;100.00;95162.72;5092252;28;20054;-68
2024/01/16 00:15:00;;;;;;;42.47;31.20;;;;;;;1.76;100.00;95159.41;5086319;28;20088;-68
2024/01/16 00:17:26;;;;;;;34.33;25.88;;;;;;;1.79;100.00;95161.81;5085767;28;20110;-68
2024/01/16 00:19:51;;;;;;;24.60;22.05;;;;;;;1.79;100.00;95167.00;5090215;28;20050;-68
2024/01/16 00:22:17;;;;;;;20.65;18.65;;;;;;;1.76;100.00;95170.59;5082398;28;20055;-68
2024/01/16 00:24:42;;;;;;;26.52;21.10;;;;;;;1.77;100.00;95174.91;5084035;28;20114;-68
2024/01/16 00:27:07;;;;;;;21.45;19.17;;;;;;;1.76;100.00;95169.78;5078285;28;20096;-69
2024/01/16 00:29:33;;;;;;;20.50;18.40;;;;;;;1.79;100.00;95172.19;5088743;28;20035;-69
2024/01/16 00:31:58;;;;;;;25.92;21.35;;;;;;;1.76;100.00;95174.97;5095411;28;20082;-69
2024/01/16 00:34:24;;;;;;;24.05;21.30;;;;;;;1.76;100.00;95169.78;5083138;28;20499;-69
2024/01/16 00:36:49;;;;;;;22.15;19.48;;;;;;;1.74;100.00;95169.88;5083858;28;20491;-68
2024/01/16 00:39:15;;;;;;;19.65;17.73;;;;;;;1.74;100.00;95161.28;5096673;28;20107;-68
2024/01/16 00:41:40;;;;;;;17.75;16.08;;;;;;;1.76;100.00;95164.59;5094300;28;20488;-68
2024/01/16 00:44:05;;;;;;;19.20;17.15;;;;;;;1.71;100.00;95160.56;5093109;28;20024;-68
2024/01/16 00:46:31;;;;;;;20.70;17.92;;;;;;;1.69;100.00;95170.19;5087626;28;20484;-68
2024/01/16 00:48:56;;;;;;;19.30;17.38;;;;;;;1.70;100.00;95165.81;5085065;28;20016;-69
2024/01/16 00:51:21;;;;;;;23.80;19.05;;;;;;;1.67;100.00;95160.84;5071032;28;20082;-68
2024/01/16 00:53:47;;;;;;;21.67;19.35;;;;;;;1.72;100.00;95153.59;5083684;28;20107;-69
2024/01/16 00:56:12;;;;;;;20.23;18.17;;;;;;;1.68;100.00;95160.75;5091896;28;20692;-68
2024/01/16 00:58:38;;;;;;;20.25;17.98;;;;;;;1.67;100.00;95161.69;5100291;28;20091;-69
2024/01/16 01:01:04;;;;;;;72.90;41.58;;;;;;;1.64;100.00;95166.25;5091833;28;20016;-68
2024/01/16 01:03:29;;;;;;;27.83;20.70;;;;;;;1.63;100.00;95170.59;5087465;28;20172;-68
2024/01/16 01:05:55;;;;;;;21.15;18.90;;;;;;;1.64;100.00;95171.44;5098640;28;20023;-68
2024/01/16 01:08:21;;;;;;;21.75;19.45;;;;;;;1.65;100.00;95168.72;5094699;28;20032;-69
2024/01/16 01:10:47;;;;;;;28.13;22.33;;;;;;;1.70;100.00;95166.69;5092557;28;20035;-69
2024/01/16 01:13:12;;;;;;;30.63;23.20;;;;;;;1.67;100.00;95169.47;5094306;28;20121;-68
2024/01/16 01:15:38;;;;;;;32.58;22.65;;;;;;;1.65;100.00;95176.50;5089296;28;20035;-69
2024/01/16 01:18:04;;;;;;;24.33;21.38;;;;;;;1.64;100.00;95168.84;5072690;28;20032;-68
2024/01/16 01:20:29;;;;;;;19.05;16.90;;;;;;;1.61;100.00;95180.22;5087768;28;20024;-68
2024/01/16 01:22:55;;;;;;;20.17;18.27;;;;;;;1.62;100.00;95186.28;5090624;28;20047;-69
2024/01/16 01:25:21;;;;;;;20.17;18.08;;;;;;;1.63;100.00;95188.75;5083256;28;20031;-68
2024/01/16 01:27:47;;;;;;;20.30;18.25;;;;;;;1.64;100.00;95193.00;5082759;28;20124;-68
2024/01/16 01:30:13;;;;;;;19.67;17.48;;;;;;;1.64;100.00;95190.41;5088085;28;20032;-68
2024/01/16 01:32:38;;;;;;;19.67;17.73;;;;;;;1.66;100.00;95188.56;5080562;28;20432;-68
2024/01/16 01:35:05;;;;;;;21.88;19.73;;;;;;;1.68;100.00;95185.88;5071522;28;20020;-68
2024/01/16 01:37:30;;;;;;;20.95;18.85;;;;;;;1.67;100.00;95192.00;5069382;28;20033;-68
2024/01/16 01:39:56;;;;;;;19.42;17.42;;;;;;;1.67;100.00;95198.03;5092822;28;20038;-69
2024/01/16 01:42:21;;;;;;;20.35;18.17;;;;;;;1.66;100.00;95200.69;5091541;28;20082;-68
2024/01/16 01:44:47;;;;;;;23.95;21.13;;;;;;;1.65;100.00;95194.66;5088045;28;20058;-68
2024/01/16 01:47:13;;;;;;;23.08;17.67;;;;;;;1.67;100.00;95198.03;5085388;28;20020;-68
2024/01/16 01:49:38;;;;;;;18.92;17.13;;;;;;;1.68;100.00;95201.44;5090085;28;20094;-68
2024/01/16 01:52:05;;;;;;;20.95;18.60;;;;;;;1.70;100.00;95204.75;5087314;28;20046;-69
2024/01/16 01:54:34;;;;;;;19.13;17.30;;;;;;;1.68;100.00;95199.69;5086748;28;20027;-68
2024/01/16 01:57:00;;;;;;;19.55;16.10;;;;;;;1.65;100.00;95197.25;5084102;28;20086;-68
2024/01/16 01:59:26;;;;;;;18.77;17.08;;;;;;;1.60;100.00;95204.53;5091158;28;20408;-69
2024/01/16 02:01:53;;;;;;;21.35;18.67;;;;;;;1.59;100.00;95209.81;5090022;28;20035;-68
2024/01/16 02:04:19;;;;;;;19.30;17.38;;;;;;;1.59;100.00;95204.63;5086800;28;20024;-69
2024/01/16 02:06:45;;;;;;;17.90;16.08;;;;;;;1.59;100.00;95212.41;5084811;28;20032;-68
2024/01/16 02:09:13;;;;;;;19.55;17.42;;;;;;;1.57;100.00;95202.13;5092645;28;20099;-69
2024/01/16 02:11:42;;;;;;;19.38;17.48;;;;;;;1.56;100.00;95205.66;5095112;28;20027;-68
2024/01/16 02:14:08;;;;;;;20.50;18.30;;;;;;;1.56;100.00;95213.44;5086213;28;20020;-68
2024/01/16 02:16:41;;;;;;;21.08;18.95;;;;;;;1.55;100.00;95210.03;5091884;28;20076;-68
2024/01/16 02:19:07;;;;;;;21.05;18.80;;;;;;;1.55;100.00;95214.38;5089253;28;20388;-68
2024/01/16 02:21:43;;;;;;;19.75;17.90;;;;;;;1.57;100.00;95217.69;5075577;28;20749;-68
2024/01/16 02:24:13;;;;;;;21.65;19.48;;;;;;;1.56;100.00;95210.84;5087325;28;20783;-69
2024/01/16 02:26:38;;;;;;;23.90;21.40;;;;;;;1.52;100.00;95209.38;5073962;28;20024;-68
2024/01/16 02:29:04;;;;;;;23.38;20.88;;;;;;;1.52;100.00;95214.56;5093758;28;20038;-69
2024/01/16 02:31:31;;;;;;;22.65;20.30;;;;;;;1.53;100.00;95224.03;5089305;28;20019;-69
2024/01/16 02:33:56;;;;;;;22.63;20.33;;;;;;;1.56;100.00;95221.22;5082790;28;20017;-69
2024/01/16 02:36:22;;;;;;;22.40;19.98;;;;;;;1.58;100.00;95229.75;5088451;28;20069;-69
2024/01/16 02:38:47;;;;;;;23.20;20.88;;;;;;;1.56;100.00;95223.81;5089976;28;20019;-68
2024/01/16 02:41:16;;;;;;;23.17;20.95;;;;;;;1.57;100.00;95228.91;5094666;28;20472;-69
2024/01/16 02:43:42;;;;;;;25.45;21.30;;;;;;;1.57;100.00;95217.69;5084410;28;20027;-68
2024/01/16 02:46:10;;;;;;;23.95;21.33;;;;;;;1.61;100.00;95213.97;5095500;28;20032;-69
2024/01/16 02:48:37;;;;;;;24.33;21.80;;;;;;;1.56;100.00;95216.03;5091225;28;20113;-68
2024/01/16 02:51:05;;;;;;;23.40;20.98;;;;;;;1.55;100.00;95217.81;5084660;28;20027;-68
2024/01/16 02:53:31;;;;;;;23.13;20.63;;;;;;;1.56;100.00;95216.03;5089994;28;20051;-68
2024/01/16 02:56:00;;;;;;;23.02;20.52;;;;;;;1.60;100.00;95207.13;5087468;28;20029;-69
2024/01/16 02:58:29;;;;;;;24.63;21.50;;;;;;;1.59;100.00;95196.84;5091305;28;20024;-68
2024/01/16 03:00:55;;;;;;;22.92;20.08;;;;;;;1.51;100.00;95194.75;5094990;28;20024;-69
2024/01/16 03:03:21;;;;;;;27.08;19.92;;;;;;;1.46;100.00;95194.22;5087704;28;20039;-68
2024/01/16 03:05:47;;;;;;;21.25;19.15;;;;;;;1.39;100.00;95184.22;5089491;28;20028;-68
2024/01/16 03:08:12;;;;;;;25.73;22.90;;;;;;;1.32;100.00;95179.50;5086337;28;20023;-68
2024/01/16 03:10:38;;;;;;;23.08;20.67;;;;;;;1.31;100.00;95183.88;5088626;28;20077;-68
2024/01/16 03:13:03;;;;;;;23.33;20.73;;;;;;;1.27;100.00;95180.63;5091316;28;20075;-68
2024/01/16 03:15:30;;;;;;;25.15;20.30;;;;;;;1.29;100.00;95185.75;5092886;28;20490;-68
2024/01/16 03:18:00;;;;;;;23.73;21.33;;;;;;;1.33;100.00;95184.59;5086563;28;20485;-68
2024/01/16 03:20:25;;;;;;;24.45;19.70;;;;;;;1.30;100.00;95184.81;5090782;28;20043;-68
2024/01/16 03:22:50;;;;;;;23.10;20.67;;;;;;;1.31;100.00;95186.47;5084160;28;20036;-68
2024/01/16 03:25:17;;;;;;;21.52;18.80;;;;;;;1.33;100.00;95179.41;5088148;28;20017;-68
2024/01/16 03:27:43;;;;;;;18.30;16.55;;;;;;;1.32;100.00;95177.75;5088144;28;20103;-68
2024/01/16 03:30:09;;;;;;;20.30;18.27;;;;;;;1.25;100.00;95179.09;5083953;28;20401;-69
2024/01/16 03:32:38;;;;;;;18.50;16.60;;;;;;;1.25;100.00;95176.50;5091024;28;20028;-68
2024/01/16 03:35:04;;;;;;;18.70;16.55;;;;;;;1.22;100.00;95179.28;5092671;28;20027;-68
2024/01/16 03:37:30;;;;;;;19.58;17.67;;;;;;;1.22;100.00;95182.69;5087299;28;20031;-68
2024/01/16 03:39:55;;;;;;;18.70;16.40;;;;;;;1.22;100.00;95198.25;5068963;28;20020;-68
2024/01/16 03:42:21;;;;;;;20.45;15.68;;;;;;;1.19;100.00;95193.28;5086888;28;20032;-68
2024/01/16 03:44:46;;;;;;;16.27;14.57;;;;;;;1.18;100.00;95195.94;5067444;28;20553;-68
2024/01/16 03:47:12;;;;;;;17.98;15.38;;;;;;;1.18;100.00;95198.53;5092838;28;20027;-68
2024/01/16 03:49:38;;;;;;;16.25;14.70;;;;;;;1.19;100.00;95197.59;5083319;28;20431;-68
2024/01/16 03:52:03;;;;;;;17.65;15.93;;;;;;;1.22;100.00;95197.44;5095583;28;20091;-68
2024/01/16 03:54:29;;;;;;;16.80;15.20;;;;;;;1.19;100.00;95198.47;5084688;28;20036;-68
2024/01/16 03:56:55;;;;;;;16.10;14.43;;;;;;;1.22;100.00;95206.03;5097029;28;20558;-68
2024/01/16 03:59:21;;;;;;;14.32;12.90;;;;;;;1.21;100.00;95204.38;5089172;28;20039;-68
2024/01/16 04:01:47;;;;;;;14.02;12.60;;;;;;;1.11;100.00;95205.91;5087007;28;20485;-68
2024/01/16 04:04:13;;;;;;;14.13;12.73;;;;;;;1.09;100.00;95212.91;5084225;28;20031;-68
2024/01/16 04:06:38;;;;;;;15.48;13.88;;;;;;;1.06;100.00;95216.53;5091791;28;20024;-68
2024/01/16 04:09:04;;;;;;;16.40;14.40;;;;;;;1.02;100.00;95219.41;5092801;28;20020;-68
2024/01/16 04:11:30;;;;;;;16.15;14.55;;;;;;;1.02;100.00;95222.84;5088696;28;20499;-68
2024/01/16 04:13:55;;;;;;;15.52;13.90;;;;;;;1.04;100.00;95214.97;5092893;28;20019;-68
2024/01/16 04:16:21;;;;;;;16.10;14.38;;;;;;;1.04;100.00;95220.16;5098197;28;20551;-68
2024/01/16 04:18:47;;;;;;;16.10;14.38;;;;;;;1.03;100.00;95214.16;5086724;28;20112;-68
2024/01/16 04:21:13;;;;;;;18.27;16.25;;;;;;;1.02;100.00;95222.00;5089032;28;20036;-68
2024/01/16 04:23:39;;;;;;;76.88;53.13;;;;;;;1.00;100.00;95215.16;5084062;28;20058;-68
2024/01/16 04:26:04;;;;;;;43.40;30.88;;;;;;;1.00;100.00;95222.13;5069171;28;20028;-68
2024/01/16 04:28:30;;;;;;;22.98;19.88;;;;;;;0.98;100.00;95221.34;5089193;28;20078;-68
2024/01/16 04:30:55;;;;;;;18.27;16.25;;;;;;;0.99;100.00;95205.72;5087894;28;20021;-68
2024/01/16 04:33:21;;;;;;;16.98;15.35;;;;;;;0.98;100.00;95205.81;5093981;28;20032;-68
2024/01/16 04:35:46;;;;;;;17.70;15.77;;;;;;;0.93;100.00;95208.69;5084366;28;20031;-68
2024/01/16 04:38:11;;;;;;;18.67;15.48;;;;;;;0.86;100.00;95204.78;5086579;28;20029;-68
2024/01/16 04:40:37;;;;;;;17.25;15.57;;;;;;;0.84;100.00;95204.91;5091202;28;20028;-68
2024/01/16 04:43:02;;;;;;;17.70;15.65;;;;;;;0.84;100.00;95201.47;5091211;28;20043;-68
2024/01/16 04:45:28;;;;;;;16.25;14.63;;;;;;;0.88;100.00;95207.31;5081320;28;20070;-68
2024/01/16 04:47:54;;;;;;;22.02;17.27;;;;;;;0.88;100.00;95197.75;5094669;28;20657;-68
2024/01/16 04:50:19;;;;;;;17.63;15.75;;;;;;;0.88;100.00;95189.16;5095602;28;20020;-68
2024/01/16 04:52:44;;;;;;;18.38;16.45;;;;;;;0.88;100.00;95194.34;5091722;28;20029;-68
2024/01/16 04:55:10;;;;;;;30.98;25.55;;;;;;;0.88;100.00;95189.16;5090849;28;20008;-68
2024/01/16 04:57:35;;;;;;;25.50;22.83;;;;;;;0.88;100.00;95187.38;5089419;28;20024;-68
2024/01/16 05:00:01;;;;;;;20.38;18.27;;;;;;;0.91;100.00;95188.97;5088744;28;20016;-68
2024/01/16 05:02:26;;;;;;;19.40;17.38;;;;;;;0.87;100.00;95175.34;5101707;28;20028;-68
2024/01/16 05:04:51;;;;;;;22.05;19.70;;;;;;;0.80;100.00;95179.25;5088962;28;20059;-68
2024/01/16 05:07:20;;;;;;;23.55;19.35;;;;;;;0.77;100.00;95171.69;5093854;28;20020;-68
2024/01/16 05:09:46;;;;;;;25.08;19.90;;;;;;;0.72;100.00;95174.56;5088254;28;20051;-68
2024/01/16 05:12:12;;;;;;;22.80;19.95;;;;;;;0.71;100.00;95170.28;5085762;28;20393;-68
2024/01/16 05:14:37;;;;;;;20.85;18.65;;;;;;;0.70;100.00;95169.47;5087669;28;20020;-68
2024/01/16 05:17:03;;;;;;;21.17;18.90;;;;;;;0.67;100.00;95172.25;5087500;28;20058;-68
2024/01/16 05:19:28;;;;;;;19.55;17.52;;;;;;;0.66;100.00;95169.75;5092216;28;20110;-68
2024/01/16 05:21:54;;;;;;;21.58;18.52;;;;;;;0.67;100.00;95174.84;5085799;28;20055;-68
2024/01/16 05:24:19;;;;;;;27.33;22.55;;;;;;;0.67;100.00;95179.19;5096248;28;20028;-68
2024/01/16 05:26:44;;;;;;;21.95;19.70;;;;;;;0.66;100.00;95180.97;5095439;28;20051;-68
2024/01/16 05:29:10;;;;;;;23.42;18.95;;;;;;;0.69;100.00;95179.94;5108877;28;20026;-68
2024/01/16 05:31:42;;;;;;;21.77;19.58;;;;;;;0.70;100.00;95171.22;5079689;28;20040;-68
2024/01/16 05:34:08;;;;;;;27.55;24.77;;;;;;;0.72;100.00;95164.19;5091363;28;20020;-68
2024/01/16 05:36:33;;;;;;;25.55;22.55;;;;;;;0.69;100.00;95166.97;5082590;28;20410;-68
2024/01/16 05:38:59;;;;;;;25.25;21.77;;;;;;;0.64;100.00;95167.25;5095316;28;20031;-68
2024/01/16 05:41:24;;;;;;;24.30;20.70;;;;;;;0.66;100.00;95165.41;5095489;28;20571;-68
2024/01/16 05:43:49;;;;;;;18.67;16.45;;;;;;;0.60;100.00;95160.59;5079109;28;20385;-68
2024/01/16 05:46:15;;;;;;;19.83;17.65;;;;;;;0.59;100.00;95161.53;5088941;28;20111;-68
2024/01/16 05:48:40;;;;;;;20.48;17.65;;;;;;;0.56;100.00;95162.56;5079346;28;20024;-68
2024/01/16 05:51:05;;;;;;;16.42;13.27;;;;;;;0.51;100.00;95149.03;5104544;28;20024;-68
2024/01/16 05:53:31;;;;;;;10.38;9.25;;;;;;;0.47;100.00;95152.75;5094942;28;20035;-68
2024/01/16 05:55:56;;;;;;;7.22;6.50;;;;;;;0.41;100.00;95146.16;5092884;28;20841;-68
2024/01/16 05:58:22;;;;;;;5.30;4.90;;;;;;;0.38;100.00;95143.75;5089330;28;20390;-68
2024/01/16 06:00:47;;;;;;;5.65;4.95;;;;;;;0.36;100.00;95144.81;5080380;28;20023;-68
2024/01/16 06:03:12;;;;;;;5.68;5.18;;;;;;;0.29;100.00;95149.50;5076471;28;20078;-68
2024/01/16 06:05:38;;;;;;;7.18;6.25;;;;;;;0.32;100.00;95161.44;5086946;28;20050;-68
2024/01/16 06:08:03;;;;;;;5.70;5.20;;;;;;;0.29;100.00;95172.81;5063773;28;20051;-68
2024/01/16 06:10:29;;;;;;;5.82;5.38;;;;;;;0.27;100.00;95179.84;5088870;28;20028;-67
2024/01/16 06:12:54;;;;;;;5.75;5.28;;;;;;;0.33;100.00;95173.44;5094419;28;20028;-68
2024/01/16 06:15:20;;;;;;;7.03;6.38;;;;;;;0.31;100.00;95188.25;5095484;28;20078;-68
2024/01/16 06:17:45;;;;;;;10.55;6.80;;;;;;;0.29;100.00;95172.81;5094925;28;20032;-69
2024/01/16 06:20:10;;;;;;;8.15;6.80;;;;;;;0.29;100.00;95178.00;5101378;28;20028;-68
2024/01/16 06:22:36;;;;;;;9.82;8.82;;;;;;;0.27;100.00;95175.50;5097163;28;20572;-68
2024/01/16 06:25:02;;;;;;;10.55;7.68;;;;;;;0.28;100.00;95179.75;5095370;28;20103;-68
2024/01/16 06:27:27;;;;;;;7.47;6.63;;;;;;;0.23;100.00;95192.13;5102799;28;20037;-68
2024/01/16 06:29:53;;;;;;;7.65;6.95;;;;;;;0.24;100.00;95198.16;5093339;28;20024;-68
2024/01/16 06:32:18;;;;;;;10.10;9.15;;;;;;;0.20;100.00;95196.66;5091633;28;20084;-68
2024/01/16 06:34:44;;;;;;;9.63;8.63;;;;;;;0.16;100.00;95195.19;5085038;28;20071;-68
2024/01/16 06:37:10;;;;;;;7.97;7.28;;;;;;;0.11;100.00;95203.19;5086124;28;20032;-68
2024/01/16 06:39:36;;;;;;;7.57;6.88;;;;;;;0.09;100.00;95192.94;5085201;28;20056;-69
2024/01/16 06:42:01;;;;;;;7.90;7.07;;;;;;;0.09;100.00;95192.09;5088005;28;20032;-68
2024/01/16 06:44:27;;;;;;;6.78;6.28;;;;;;;0.08;100.00;95185.25;5090089;28;20036;-69
2024/01/16 06:46:52;;;;;;;6.63;6.07;;;;;;;0.02;100.00;95183.91;5085767;28;20035;-69
2024/01/16 06:49:18;;;;;;;6.38;5.82;;;;;;;-0.07;100.00;95172.31;5086021;28;20392;-70
2024/01/16 06:51:43;;;;;;;18.70;16.42;;;;;;;-0.16;100.00;95178.88;5095851;28;20028;-68
2024/01/16 06:54:08;;;;;;;9.20;7.95;;;;;;;-0.24;100.00;95185.41;5091112;28;20024;-68
2024/01/16 06:56:34;;;;;;;11.68;10.48;;;;;;;-0.32;100.00;95188.41;5078374;28;20025;-69
2024/01/16 06:58:59;;;;;;;8.30;6.93;;;;;;;-0.42;100.00;95190.69;5095367;28;20257;-68
2024/01/16 07:01:24;;;;;;;6.47;5.70;;;;;;;-0.46;100.00;95199.56;5094444;28;20027;-67
2024/01/16 07:03:50;;;;;;;6.80;4.35;;;;;;;-0.44;100.00;95200.31;5096478;28;20028;-67
2024/01/16 07:06:15;;;;;;;5.57;4.40;;;;;;;-0.48;100.00;95204.81;5087073;28;20416;-69
2024/01/16 07:08:41;;;;;;;6.75;6.07;;;;;;;-0.50;100.00;95214.41;5064645;28;20031;-67
2024/01/16 07:11:08;;;;;;;7.07;6.03;;;;;;;-0.54;100.00;95212.09;5087106;28;20028;-70
2024/01/16 07:13:34;;;;;;;9.07;8.15;;;;;;;-0.59;100.00;95222.69;5091738;28;20089;-69
2024/01/16 07:16:00;;;;;;;10.32;9.32;;;;;;;-0.59;100.00;95226.09;5085310;28;21365;-69
2024/01/16 07:18:28;;;;;;;17.17;9.57;;;;;;;-0.58;100.00;95229.53;5080652;28;20036;-69
2024/01/16 07:20:53;;;;;;;9.15;8.25;;;;;;;-0.54;100.00;95230.19;5097680;28;20028;-69
2024/01/16 07:23:19;;;;;;;10.10;7.82;;;;;;;-0.51;100.00;95223.09;5057012;28;20544;-68
2024/01/16 07:25:44;;;;;;;12.20;11.00;;;;;;;-0.45;100.00;95219.31;5088436;28;20128;-69
2024/01/16 07:28:09;;;;;;;9.23;8.38;;;;;;;-0.43;100.00;95227.81;5089096;28;20024;-68
2024/01/16 07:30:35;;;;;;;9.55;8.65;;;;;;;-0.38;100.00;95220.63;5065136;28;20789;-69
2024/01/16 07:33:00;;;;;;;8.48;7.78;;;;;;;-0.42;100.00;95228.69;5066685;28;20033;-69
2024/01/16 07:35:26;;;;;;;9.60;8.70;;;;;;;-0.46;100.00;95228.81;5061961;28;20037;-69
2024/01/16 07:37:51;;;;;;;8.68;7.93;;;;;;;-0.52;100.00;95244.69;5068354;28;20024;-69
2024/01/16 07:40:17;;;;;;;7.47;6.88;;;;;;;-0.51;100.00;95241.19;5064804;28;20029;-68
2024/01/16 07:42:42;;;;;;;6.03;5.53;;;;;;;-0.54;100.00;95249.13;5069514;28;20037;-68
2024/01/16 07:45:08;;;;;;;5.97;4.85;;;;;;;-0.59;100.00;95248.53;5058123;28;20252;-69
2024/01/16 07:47:33;;;;;;;5.93;5.50;;;;;;;-0.61;100.00;95251.19;5067894;28;20060;-69
2024/01/16 07:50:02;;;;;;;4.70;4.35;;;;;;;-0.61;100.00;95252.97;5073405;28;20028;-69
2024/01/16 07:52:28;;;;;;;8.07;7.38;;;;;;;-0.59;100.00;95262.28;5085253;28;20110;-69
2024/01/16 07:54:54;;;;;;;26.48;17.05;;;;;;;-0.57;100.00;95272.56;5073803;28;20040;-69
2024/01/16 07:57:19;;;;;;;41.38;22.33;;;;;;;-0.46;100.00;95279.72;5073682;28;20115;-69
2024/01/16 07:59:45;;;;;;;35.67;19.67;;;;;;;-0.49;100.00;95282.50;5085284;28;20040;-69
2024/01/16 08:02:10;;;;;;;24.95;15.48;;;;;;;-0.49;100.00;95287.66;5075018;28;20424;-69
2024/01/16 08:04:35;;;;;;;14.90;10.70;;;;;;;-0.51;100.00;95287.75;5070247;28;20112;-69
2024/01/16 08:07:01;;;;;;;12.68;9.13;;;;;;;-0.54;100.00;95290.50;5068255;28;20023;-69
2024/01/16 08:09:27;;;;;;;11.10;7.43;;;;;;;-0.49;100.00;95285.91;5074894;28;20032;-68
2024/01/16 08:11:53;;;;;;;14.57;10.57;;;;;;;-0.48;100.00;95297.09;5065573;28;20027;-69
2024/01/16 08:14:18;;;;;;;12.95;8.65;;;;;;;-0.40;100.00;95296.69;5081436;28;20034;-68
2024/01/16 08:16:43;;;;;;;6.95;6.15;;;;;;;-0.32;100.00;95292.75;5065934;28;20029;-69
2024/01/16 08:19:09;;;;;;;5.78;5.28;;;;;;;-0.26;100.00;95288.16;5072854;28;20068;-69
2024/01/16 08:21:34;;;;;;;8.75;6.18;;;;;;;-0.32;100.00;95289.31;5081101;28;20052;-69
2024/01/16 08:24:00;;;;;;;5.30;4.85;;;;;;;-0.37;100.00;95289.56;5101578;28;20043;-69
2024/01/16 08:26:25;;;;;;;5.43;4.93;;;;;;;-0.42;100.00;95301.09;5093290;28;20032;-69
2024/01/16 08:28:51;;;;;;;7.63;6.20;;;;;;;-0.42;100.00;95306.28;5086148;28;20029;-69
2024/01/16 08:31:18;;;;;;;7.88;6.47;;;;;;;-0.40;100.00;95296.69;5093031;28;20032;-68
2024/01/16 08:33:44;;;;;;;8.90;7.53;;;;;;;-0.35;100.00;95298.06;5089052;28;20016;-69
2024/01/16 08:36:09;;;;;;;8.85;7.30;;;;;;;-0.26;100.00;95306.25;5093009;28;20481;-68
2024/01/16 08:38:34;;;;;;;7.93;7.13;;;;;;;-0.27;100.00;95307.19;5095889;28;20238;-68
2024/01/16 08:41:00;;;;;;;9.82;8.82;;;;;;;-0.29;100.00;95317.59;5092843;28;20469;-69
2024/01/16 08:43:25;;;;;;;17.05;14.52;;;;;;;-0.30;100.00;95326.28;5091935;28;20020;-69
2024/01/16 08:45:51;;;;;;;19.25;14.15;;;;;;;-0.36;100.00;95324.84;5084698;28;20107;-68
2024/01/16 08:48:16;;;;;;;23.42;17.35;;;;;;;-0.38;100.00;95324.09;5087994;28;20023;-69
2024/01/16 08:50:42;;;;;;;28.48;19.50;;;;;;;-0.42;100.00;95321.78;5083547;28;20020;-69
2024/01/16 08:53:07;;;;;;;26.77;19.33;;;;;;;-0.39;100.00;95321.63;5095614;28;20046;-68
2024/01/16 08:55:33;;;;;;;23.33;17.35;;;;;;;-0.42;100.00;95320.03;5094058;28;20012;-68
2024/01/16 08:57:58;;;;;;;24.35;19.05;;;;;;;-0.48;100.00;95313.44;5089453;28;20127;-69
2024/01/16 09:00:24;;;;;;;22.38;18.13;;;;;;;-0.54;100.00;95313.78;5068300;28;20027;-69
2024/01/16 09:02:49;;;;;;;38.15;26.08;;;;;;;-0.57;100.00;95319.13;5091723;28;20020;-70
2024/01/16 09:05:15;;;;;;;31.38;21.80;;;;;;;-0.52;100.00;95318.88;5099076;28;20081;-69
2024/01/16 09:07:41;;;;;;;58.85;35.33;;;;;;;-0.54;100.00;95323.31;5096668;28;20026;-69
2024/01/16 09:10:07;;;;;;;37.10;23.27;;;;;;;-0.58;100.00;95323.44;5088962;28;20023;-69
2024/01/16 09:12:33;;;;;;;41.33;25.80;;;;;;;-0.47;100.00;95319.44;5082371;28;20024;-69
2024/01/16 09:14:58;;;;;;;20.83;15.63;;;;;;;-0.46;100.00;95323.72;5095902;28;20095;-69
2024/01/16 09:17:26;;;;;;;20.55;14.40;;;;;;;-0.48;100.00;95326.38;5104022;28;20596;-69
2024/01/16 09:19:51;;;;;;;22.55;14.65;;;;;;;-0.61;100.00;95326.19;5097466;28;20048;-69
2024/01/16 09:22:17;;;;;;;22.92;14.70;;;;;;;-0.60;100.00;95325.28;5084177;28;20048;-69
2024/01/16 09:24:43;;;;;;;18.58;14.52;;;;;;;-0.54;100.00;95321.53;5107718;28;20025;-69
2024/01/16 09:27:09;;;;;;;19.10;15.07;;;;;;;-0.50;100.00;95317.03;5085154;28;20027;-69
2024/01/16 09:29:35;;;;;;;16.27;12.80;;;;;;;-0.27;100.00;95331.28;5085470;28;20046;-69
2024/01/16 09:32:01;;;;;;;15.45;11.95;;;;;;;0.21;100.00;95322.59;5093908;28;20020;-69
2024/01/16 09:34:26;;;;;;;12.13;9.88;;;;;;;0.66;100.00;95309.66;5091775;28;20016;-69
2024/01/16 09:36:51;;;;;;;12.60;9.45;;;;;;;0.91;100.00;95318.56;5092433;28;20069;-70
2024/01/16 09:39:17;;;;;;;32.97;23.77;;;;;;;0.71;100.00;95339.56;5107782;28;20074;-69
2024/01/16 09:41:44;;;;;;;41.45;32.15;;;;;;;0.63;100.00;95341.75;5076212;28;20649;-69
2024/01/16 09:44:09;;;;;;;23.13;17.20;;;;;;;0.50;100.00;95364.16;5083331;28;20028;-69
2024/01/16 09:46:38;;;;;;;7.22;6.40;;;;;;;0.44;100.00;95378.28;5086710;28;20020;-69
2024/01/16 09:49:04;;;;;;;14.98;9.95;;;;;;;0.50;100.00;95392.63;5102112;28;20024;-69
2024/01/16 09:51:29;;;;;;;16.48;10.57;;;;;;;0.60;100.00;95403.31;5096151;28;20023;-69
2024/01/16 09:53:55;;;;;;;14.32;10.23;;;;;;;0.75;100.00;95404.19;5091939;28;20111;-69
2024/01/16 09:56:24;;;;;;;11.95;9.48;;;;;;;0.88;100.00;95409.47;5092913;28;20024;-69
2024/01/16 09:58:54;;;;;;;14.02;10.65;;;;;;;0.89;100.00;95417.19;5092311;28;20480;-69
2024/01/16 10:01:20;;;;;;;17.15;11.65;;;;;;;0.95;100.00;95421.16;5095592;28;20024;-69
2024/01/16 10:03:45;;;;;;;11.60;9.85;;;;;;;0.95;100.00;95419.41;5094468;28;20035;-69
2024/01/16 10:06:11;;;;;;;12.82;10.95;;;;;;;1.04;100.00;95423.22;5096298;28;20482;-69
2024/01/16 10:08:38;;;;;;;10.00;9.00;;;;;;;1.11;100.00;95421.94;5094842;28;20023;-70
2024/01/16 10:11:03;;;;;;;10.52;9.40;;;;;;;1.12;100.00;95418.41;5088753;28;20463;-69
2024/01/16 10:13:29;;;;;;;14.27;12.30;;;;;;;1.22;100.00;95415.28;5084925;28;20048;-69
2024/01/16 10:15:55;;;;;;;12.18;9.85;;;;;;;1.20;100.00;95414.53;5093385;28;20087;-69
2024/01/16 10:18:32;;;;;;;7.85;7.05;;;;;;;1.25;100.00;95415.91;5089966;28;20546;-70
2024/01/16 10:20:57;;;;;;;4.35;3.90;;;;;;;1.33;100.00;95422.44;5081583;28;20354;-68
2024/01/16 10:23:25;;;;;;;8.88;7.07;;;;;;;1.29;100.00;95430.38;5092141;28;20090;-69
2024/01/16 10:26:06;;;;;;;14.00;12.60;;;;;;;1.29;100.00;95437.34;5090231;28;20051;-69
2024/01/16 10:28:34;;;;;;;6.40;5.90;;;;;;;1.34;100.00;95437.88;5083844;28;20032;-69
2024/01/16 10:31:11;;;;;;;5.63;5.22;;;;;;;1.43;100.00;95433.91;5073537;28;20032;-69
2024/01/16 10:33:39;;;;;;;5.07;4.03;;;;;;;1.47;100.00;95437.16;5090866;28;20063;-69
2024/01/16 10:36:12;;;;;;;8.48;4.65;;;;;;;1.62;100.00;95433.63;5088506;28;20093;-69
2024/01/16 10:38:41;;;;;;;8.63;6.05;;;;;;;1.61;100.00;95441.50;5094192;28;20028;-69
2024/01/16 10:41:13;;;;;;;12.52;7.25;;;;;;;1.69;100.00;95449.66;5086992;28;20085;-69
2024/01/16 10:43:40;;;;;;;13.27;7.80;;;;;;;1.61;100.00;95450.13;5082632;28;20528;-69
2024/01/16 10:46:11;;;;;;;7.15;6.00;;;;;;;1.55;100.00;95455.69;5095653;28;20024;-69
2024/01/16 10:48:38;;;;;;;5.68;5.03;;;;;;;1.52;100.00;95448.09;5089225;28;20032;-69
2024/01/16 10:51:06;;;;;;;7.18;6.50;;;;;;;1.57;100.00;95446.91;5086450;28;20565;-69
2024/01/16 10:53:33;;;;;;;7.85;7.07;;;;;;;1.64;100.00;95447.34;5091434;28;20029;-69
2024/01/16 10:56:01;;;;;;;8.55;7.75;;;;;;;1.63;100.00;95443.06;5081475;28;20036;-69
2024/01/16 10:58:27;;;;;;;8.50;7.70;;;;;;;1.67;100.00;95435.94;5094689;28;20024;-69
2024/01/16 11:00:54;;;;;;;9.18;6.88;;;;;;;1.74;100.00;95413.06;5099491;28;20028;-70
2024/01/16 11:03:27;;;;;;;8.63;7.53;;;;;;;1.68;100.00;95407.31;5092251;28;20100;-69
2024/01/16 11:05:54;;;;;;;10.10;7.72;;;;;;;1.74;100.00;95397.47;5085617;28;20422;-70
2024/01/16 11:08:20;;;;;;;9.18;6.53;;;;;;;1.79;100.00;95392.81;5093128;28;20395;-69
2024/01/16 11:10:48;;;;;;;8.98;5.80;;;;;;;1.80;100.00;95376.31;5088947;28;20403;-69
2024/01/16 11:13:15;;;;;;;7.20;5.90;;;;;;;1.70;100.00;95373.47;5094077;28;20024;-69